Flight Track Log - Related Links

Times and Time Zones

All times are in EST time to prevent confusion due to time zone crossing. See the TRS265 flight status page for this flight to view local times or setup timezone preferences in your user account.

Time Position Orientation Groundspeed Altitude Reporting Facility
EST Latitude Longitude Course Direction KTS MPH feet Rate Location/Type
Sat 10:21:37 AM 28.4333 -81.3000 24° Northeast 174 200 700  Level Orlando TRACON
Sat 10:22:07 AM 28.4667 -81.2833 24° Northeast 175 201 1,500 1,867 Climbing Orlando TRACON
Sat 10:23:07 AM 28.5167 -81.2667 16° North 215 247 3,500 2,083 Climbing Orlando TRACON
Sat 10:24:08 AM 28.5833 -81.2667 360° North 283 326 5,700 2,430 Climbing Orlando TRACON
Sat 10:25:08 AM 28.6500 -81.3167 327° Northwest 285 328 8,400 2,070 Climbing Orlando TRACON
Sat 10:27:28 AM 28.8425 -81.4158 336° Northwest 323 372 12,600 1,830 Climbing Jacksonville Center
Sat 10:28:28 AM 28.9514 -81.4475 346° North 363 418 14,500 1,950 Climbing Jacksonville Center
Sat 10:29:28 AM 29.0564 -81.4886 341° North 386 444 16,500 1,850 Climbing Jacksonville Center
Sat 10:30:28 AM 29.1631 -81.5228 344° North 393 452 18,200 1,500 Climbing Jacksonville Center
Sat 10:31:28 AM 29.2617 -81.5619 341° North 405 466 19,500 1,250 Climbing Jacksonville Center
Sat 10:32:28 AM 29.3747 -81.5986 344° North 410 472 20,700 1,300 Climbing Jacksonville Center
Sat 10:33:28 AM 29.4881 -81.6400 342° North 415 478 22,100 1,289 Climbing Jacksonville Center
Sat 10:34:29 AM 29.6072 -81.6814 343° North 434 499 23,300 1,250 Climbing Jacksonville Center
Sat 10:35:28 AM 29.7267 -81.7231 343° North 444 511 24,600 1,261 Climbing Jacksonville Center
Sat 10:36:28 AM 29.8461 -81.7647 343° North 444 511 25,800 1,100 Climbing Jacksonville Center
Sat 10:37:28 AM 29.9697 -81.8089 343° North 444 511 26,800 1,200 Climbing Jacksonville Center
Sat 10:38:28 AM 30.1036 -81.8531 344° North 451 519 28,200 1,350 Climbing Jacksonville Center
Sat 10:39:28 AM 30.2269 -81.8828 348° North 451 519 29,500 1,300 Climbing Jacksonville Center
Sat 10:40:28 AM 30.3583 -81.8719 North 454 522 30,800 750 Climbing Jacksonville Center
Sat 10:41:28 AM 30.4714 -81.9044 346° North 446 513 31,000 100 Climbing Jacksonville Center
Sat 10:42:28 AM 30.5889 -81.9586 338° Northwest 437 503 31,000  Level Jacksonville Center
Sat 10:43:28 AM 30.6997 -82.0108 338° Northwest 437 503 31,000  Level Jacksonville Center
Sat 10:44:28 AM 30.8108 -82.0581 340° North 432 497 31,000  Level Jacksonville Center
Sat 10:45:28 AM 30.9239 -82.1081 339° North 432 497 31,000  Level Jacksonville Center
Sat 10:46:28 AM 31.0369 -82.1603 338° Northwest 432 497 31,000 50 Level Jacksonville Center
Sat 10:47:28 AM 31.1519 -82.2103 340° North 432 497 31,100 900 Climbing Jacksonville Center
Sat 10:48:28 AM 31.2631 -82.2558 341° North 432 497 32,800 950 Climbing Jacksonville Center
Sat 10:49:28 AM 31.3697 -82.3061 338° Northwest 421 484 33,000 100 Climbing Jacksonville Center
Sat 10:50:28 AM 31.4783 -82.3517 340° North 411 473 33,000  Level Jacksonville Center
Sat 10:52:02 AM 31.6317 -82.4242 338° Northwest 404 465 33,000  Level Atlanta Center
Sat 10:53:02 AM 31.7386 -82.4711 340° North 404 465 33,000  Level Atlanta Center
Sat 10:54:02 AM 31.8478 -82.5206 339° North 409 471 33,000  Level Atlanta Center
Sat 10:55:02 AM 31.9569 -82.5678 340° North 415 478 33,000  Level Atlanta Center
Sat 10:56:02 AM 32.0661 -82.6197 338° Northwest 415 478 33,000  Level Atlanta Center
Sat 10:57:02 AM 32.1731 -82.6672 339° North 415 478 33,000  Level Atlanta Center
Sat 10:58:02 AM 32.2822 -82.7172 339° North 415 478 33,000  Level Atlanta Center
Sat 10:59:02 AM 32.3892 -82.7672 338° Northwest 415 478 33,000 -50 Level Atlanta Center
Sat 11:00:02 AM 32.5025 -82.8197 339° North 420 483 32,900 -500 Descending Atlanta Center
Sat 11:01:02 AM 32.6156 -82.8725 339° North 406 467 32,000 -450 Descending Atlanta Center
Sat 11:02:02 AM 32.7308 -82.9228 340° North 416 479 32,000  Level Atlanta Center
Sat 11:03:02 AM 32.8442 -82.9756 339° North 423 487 32,000  Level Atlanta Center
Sat 11:04:02 AM 32.9553 -83.0264 339° North 428 493 32,000  Level Atlanta Center
Sat 11:05:02 AM 33.0661 -83.0844 336° Northwest 428 493 32,000  Level Atlanta Center
Sat 11:06:02 AM 33.1689 -83.1281 340° North 434 499 32,000  Level Atlanta Center
Sat 11:07:02 AM 33.2842 -83.1839 338° Northwest 434 499 32,000  Level Atlanta Center
Sat 11:08:02 AM 33.3950 -83.2353 339° North 428 493 32,000  Level Atlanta Center
Sat 11:09:02 AM 33.5103 -83.2864 340° North 433 498 32,000  Level Atlanta Center
Sat 11:10:02 AM 33.6231 -83.3403 338° Northwest 433 498 32,000  Level Atlanta Center
Sat 11:11:02 AM 33.7383 -83.3944 339° North 433 498 32,000  Level Atlanta Center
Sat 11:12:02 AM 33.8533 -83.4458 340° North 433 498 32,000  Level Atlanta Center
Sat 11:13:02 AM 33.9664 -83.5003 338° Northwest 433 498 32,000  Level Atlanta Center
Sat 11:14:02 AM 34.0792 -83.5522 339° North 433 498 32,000  Level Atlanta Center
Sat 11:15:02 AM 34.2025 -83.6092 339° North 433 498 32,000  Level Atlanta Center
Sat 11:16:02 AM 34.3156 -83.6642 338° Northwest 433 498 32,000  Level Atlanta Center
Sat 11:17:02 AM 34.4261 -83.7164 339° North 433 498 32,000  Level Atlanta Center
Sat 11:18:02 AM 34.5392 -83.7689 339° North 427 491 32,000  Level Atlanta Center
Sat 11:19:02 AM 34.6519 -83.8242 338° Northwest 432 497 32,000  Level Atlanta Center
Sat 11:20:02 AM 34.7606 -83.8769 338° Northwest 426 490 32,000  Level Atlanta Center
Sat 11:21:02 AM 34.8586 -83.9300 336° Northwest 421 484 32,000  Level Atlanta Center
Sat 11:22:02 AM 34.9692 -83.9856 338° Northwest 421 484 32,000  Level Atlanta Center
Sat 11:23:02 AM 35.0797 -84.0389 338° Northwest 421 484 32,000  Level Atlanta Center
Sat 11:24:02 AM 35.1883 -84.0922 338° Northwest 421 484 32,000  Level Atlanta Center
Sat 11:25:02 AM 35.3008 -84.1456 339° North 421 484 32,000  Level Atlanta Center
Sat 11:26:02 AM 35.4094 -84.1992 338° Northwest 416 479 32,000  Level Atlanta Center
Sat 11:27:02 AM 35.5200 -84.2556 337° Northwest 416 479 32,000  Level Atlanta Center
Sat 11:28:02 AM 35.6283 -84.3069 339° North 416 479 32,000  Level Atlanta Center
Sat 11:29:02 AM 35.7386 -84.3611 338° Northwest 416 479 32,000  Level Atlanta Center
Sat 11:30:02 AM 35.8511 -84.4181 338° Northwest 416 479 32,000  Level Atlanta Center
Sat 11:31:02 AM 35.9594 -84.4697 339° North 416 479 32,000  Level Atlanta Center
Sat 11:32:32 AM 36.1283 -84.5550 338° Northwest 427 491 32,000  Level Indianapolis Center
Sat 11:33:34 AM 36.2381 -84.6111 338° Northwest 429 494 32,000  Level Indianapolis Center
Sat 11:34:35 AM 36.3481 -84.6661 338° Northwest 429 494 32,000  Level Indianapolis Center
Sat 11:35:36 AM 36.4572 -84.7228 337° Northwest 427 491 32,000  Level Indianapolis Center
Sat 11:36:37 AM 36.5900 -84.7892 338° Northwest 428 493 32,000  Level Indianapolis Center
Sat 11:37:39 AM 36.6992 -84.8450 338° Northwest 426 490 32,000  Level Indianapolis Center
Sat 11:38:40 AM 36.8086 -84.9025 337° Northwest 426 490 32,000  Level Indianapolis Center
Sat 11:39:41 AM 36.9161 -84.9569 338° Northwest 420 483 32,000  Level Indianapolis Center
Sat 11:40:43 AM 37.0242 -85.0139 337° Northwest 421 484 32,000  Level Indianapolis Center
Sat 11:41:44 AM 37.1386 -85.0700 339° North 418 481 32,000  Level Indianapolis Center
Sat 11:42:45 AM 37.2461 -85.1269 337° Northwest 417 480 32,000  Level Indianapolis Center
Sat 11:43:46 AM 37.3542 -85.1825 338° Northwest 418 481 32,000  Level Indianapolis Center
Sat 11:44:48 AM 37.4608 -85.2386 337° Northwest 414 476 32,000  Level Indianapolis Center
Sat 11:45:49 AM 37.5678 -85.2958 337° Northwest 414 476 32,000  Level Indianapolis Center
Sat 11:46:50 AM 37.6742 -85.3522 337° Northwest 413 475 32,000  Level Indianapolis Center
Sat 11:47:51 AM 37.7803 -85.4078 338° Northwest 413 475 32,000  Level Indianapolis Center
Sat 11:48:53 AM 37.8875 -85.4644 337° Northwest 415 478 32,000  Level Indianapolis Center
Sat 11:49:54 AM 37.9953 -85.5208 338° Northwest 417 480 32,000  Level Indianapolis Center
Sat 11:50:55 AM 38.1022 -85.5797 337° Northwest 419 482 32,000  Level Indianapolis Center
Sat 11:51:57 AM 38.2322 -85.6522 336° Northwest 420 483 32,000  Level Indianapolis Center
Sat 11:52:58 AM 38.3383 -85.7153 335° Northwest 420 483 32,000  Level Indianapolis Center
Sat 11:53:59 AM 38.4453 -85.7792 335° Northwest 423 487 32,000 639 Level Indianapolis Center
Sat 11:55:00 AM 38.5531 -85.8414 336° Northwest 424 488 33,300 984 Climbing Indianapolis Center
Sat 11:56:01 AM 38.6583 -85.9044 335° Northwest 419 482 34,000 344 Climbing Indianapolis Center
Sat 11:57:02 AM 38.7667 -85.9692 335° Northwest 427 491 34,000  Level Indianapolis Center
Sat 11:58:04 AM 38.8711 -86.0317 335° Northwest 418 481 34,000  Level Indianapolis Center
Sat 11:59:05 AM 38.9778 -86.0961 335° Northwest 421 484 34,000  Level Indianapolis Center
Sat 12:00:06 PM 39.0836 -86.1594 335° Northwest 419 482 34,000  Level Indianapolis Center
Sat 12:01:07 PM 39.1886 -86.2231 335° Northwest 417 480 34,000  Level Indianapolis Center
Sat 12:02:08 PM 39.2919 -86.2864 335° Northwest 413 475 34,000  Level Indianapolis Center
Sat 12:03:09 PM 39.3969 -86.3497 335° Northwest 414 476 34,000  Level Indianapolis Center
Sat 12:04:11 PM 39.5228 -86.4267 335° Northwest 415 478 34,000  Level Indianapolis Center
Sat 12:05:12 PM 39.6292 -86.4919 335° Northwest 421 484 34,000 -98 Level Indianapolis Center
Sat 12:06:13 PM 39.7361 -86.5564 335° Northwest 422 486 33,800 -443 Descending Indianapolis Center
Sat 12:07:14 PM 39.8447 -86.6236 335° Northwest 427 491 33,100 -738 Descending Indianapolis Center
Sat 12:08:15 PM 39.9533 -86.6919 334° Northwest 430 495 32,300 -541 Descending Indianapolis Center
Sat 12:09:16 PM 40.0633 -86.7600 335° Northwest 434 499 32,000 -182 Descending Indianapolis Center
Sat 12:09:54 PM 40.1383 -86.8067 335° Northwest 435 501 32,000  Level Chicago Center
Sat 12:10:56 PM 40.2483 -86.8744 335° Northwest 437 503 32,000 -339 Level Chicago Center
Sat 12:11:58 PM 40.3572 -86.9439 334° Northwest 437 503 31,300 -683 Descending Chicago Center
Sat 12:12:59 PM 40.4664 -87.0114 335° Northwest 437 503 30,600 -683 Descending Chicago Center
Sat 12:14:01 PM 40.5783 -87.0697 338° Northwest 446 513 29,900 -732 Descending Chicago Center
Sat 12:15:02 PM 40.7047 -87.0867 354° North 460 529 29,100 -829 Descending Chicago Center
Sat 12:16:04 PM 40.8542 -87.1061 354° North 453 521 28,200 -532 Descending Chicago Center
Sat 12:17:06 PM 40.9767 -87.1219 354° North 447 514 28,000 -98 Descending Chicago Center
Sat 12:18:07 PM 41.0992 -87.1386 354° North 445 512 28,000 -146 Level Chicago Center
Sat 12:19:09 PM 41.2225 -87.1547 354° North 449 517 27,700 -488 Descending Chicago Center
Sat 12:20:10 PM 41.3458 -87.1700 355° North 448 516 27,000 -1,122 Descending Chicago Center
Sat 12:21:12 PM 41.4675 -87.1853 355° North 447 514 25,400 -1,452 Descending Chicago Center
Sat 12:22:14 PM 41.6100 -87.2053 354° North 436 502 24,000 -732 Descending Chicago Center
Sat 12:23:15 PM 41.7269 -87.2208 354° North 429 494 23,900 -732 Descending Chicago Center
Sat 12:24:17 PM 41.8447 -87.2358 355° North 428 493 22,500 -1,403 Descending Chicago Center
Sat 12:25:19 PM 41.9603 -87.2519 354° North 425 489 21,000 -1,220 Descending Chicago Center
Sat 12:26:20 PM 42.0697 -87.2667 354° North 409 471 20,000 -1,268 Descending Chicago Center
Sat 12:27:22 PM 42.1783 -87.2803 355° North 397 457 18,400 -1,951 Descending Chicago Center
Sat 12:28:23 PM 42.3092 -87.2953 355° North 396 456 16,000 -1,122 Descending Chicago Center
Sat 12:29:25 PM 42.3958 -87.3072 354° North 387 445 16,100 -629 Climbing Chicago Center
Sat 12:30:27 PM 42.5172 -87.3239 354° North 370 426 14,700 -1,122 Descending Chicago Center
Sat 12:31:28 PM 42.6214 -87.3389 354° North 373 429 13,800 -1,366 Descending Chicago Center
Sat 12:32:30 PM 42.7117 -87.3856 339° North 375 432 11,900 -1,839 Descending Chicago Center
Sat 12:33:32 PM 42.7617 -87.4903 303° West 341 392 10,000 -1,463 Descending Chicago Center
Sat 12:34:33 PM 42.8061 -87.5853 303° West 308 354 8,900 -1,415 Descending Chicago Center
Sat 12:35:35 PM 42.8528 -87.6917 301° West 280 322 7,100 -871 Descending Chicago Center
Sat 12:36:37 PM 42.9092 -87.7575 319° Northwest 293 337 7,100 -439 Level Chicago Center
Sat 12:37:38 PM 42.9842 -87.7725 352° North 276 318 6,200 -1,415 Descending Chicago Center
Sat 12:38:40 PM 43.0556 -87.7675 North 263 303 4,200 -1,016 Descending Chicago Center
Sat 12:39:42 PM 43.1206 -87.7633 North 246 283 4,100 -48 Descending Chicago Center
Sat 12:40:44 PM 43.1817 -87.7589 North 230 265 4,100 -145 Level Chicago Center
Sat 12:41:46 PM 43.2072 -87.8158 302° West 157 181 3,800 -585 Descending Chicago Center
Sat 12:42:47 PM 43.1817 -87.8478 222° Southwest 138 159 2,900 -439 Descending Chicago Center
Sat 12:43:49 PM 43.1464 -87.8611 195° South 135 155 2,900  Level Chicago Center
Sat 12:44:51 PM 43.1086 -87.8658 185° South 136 157 2,900  Level Chicago Center
Sat 12:45:53 PM 43.0719 -87.8728 188° South 135 155 2,900 -194 Level Chicago Center
Sat 12:46:55 PM 43.0394 -87.8786 187° South 128 147 2,500 -488 Descending Chicago Center
Sat 12:47:56 PM 43.0108 -87.8833 187° South 115 132 1,900 -390 Descending Chicago Center
Sat 12:48:58 PM 42.9742 -87.8889 186° South 113 130 1,700 -194 Descending Chicago Center

Login

Don't have an account? Register now (free) for customized features, flight alerts, and more!